Arthur, NE (69121)

3:26 PM MDT on April 26, 2017 (GMT -0600)
Eagle Bay Town Homes | | Change Station

Elev 3343 ft 41.24 °N, 101.88 °W | Updated 28 seconds ago

Clear
Clear
57.9 °F
Feels Like 57.9 °F
N
2.9
Wind Variable Wind from North
Gusts 4.9 mph

Today
High -- | Low -- °F
--% Chance of Precip.
Yesterday
High -- | Low -- °F
Precip. -- in
Pressure 29.70 in
Visibility 10.0 miles
Clouds Clear
Dew Point 28 °F
Humidity 32%
Rainfall 0.00 in
Snow Depth Not available.
5:50 AM 7:39 PM
New Moon, 0% visible
METAR KOGA 262115Z AUTO 36009G21KT 10SM CLR 14/M01 A2970 RMK AO2 T01381015
Pressure 29.70 in
Visibility 10.0 miles
Clouds Clear
Dew Point 28 °F
Humidity 32%
Rainfall 0.00 in
Snow Depth Not available.
5:50 AM 7:39 PM
New Moon, 0% visible
METAR KOGA 262115Z AUTO 36009G21KT 10SM CLR 14/M01 A2970 RMK AO2 T01381015

Get Severe Weather Alerts

Thanks for signing up!

Be on the lookout for a verification email in your inbox.

You'll start receiving the daily forecast at 8 AM.

×

10-Day Weather Forecast

Almanac

Astronomy

Apr. 26, 2017 Rise Set
Actual Time
Civil Twilight
Nautical Twilight
Astronomical Twilight
Moon
Length of Visible Light
Length of Day
Tomorrow will be .
, % of the Moon is Illuminated

Today's Extremes

State Highs State Lows

Community

WunderPhotos

WunderBlog® & News

Nearby

Air Quality

  Air Quality AQ Index Pollutant
Not available.

Snow Depth

Station Depth Elevation

Earthquake Activity

City Distance Mag. Time & Date
Minimum magnitude displayed is 2.5.

Coastal Water Temperatures

Place Temperature

Stations

Nearby Weather Stations

Station Location Temp. Windchill Dew Point Humidity Wind Precip. Elev Updated Type
                   

Watches & Warnings

There are currently no watches in effect.